sensor_id;sensor_type;location;lat;lon;timestamp;P1;durP1;ratioP1;P2;durP2;ratioP2
21418;SDS011;10870;51.384;10.316;2023-02-15T00:01:52;11.90;;;6.82;;
21418;SDS011;10870;51.384;10.316;2023-02-15T00:03:55;12.30;;;7.05;;
21418;SDS011;10870;51.384;10.316;2023-02-15T00:05:59;8.23;;;6.10;;
21418;SDS011;10870;51.384;10.316;2023-02-15T00:08:00;10.02;;;6.63;;
21418;SDS011;10870;51.384;10.316;2023-02-15T00:10:02;9.82;;;6.45;;
21418;SDS011;10870;51.384;10.316;2023-02-15T00:12:03;8.10;;;6.47;;
21418;SDS011;10870;51.384;10.316;2023-02-15T00:14:08;8.95;;;6.78;;
21418;SDS011;10870;51.384;10.316;2023-02-15T00:16:13;8.88;;;6.60;;
21418;SDS011;10870;51.384;10.316;2023-02-15T00:18:14;7.80;;;5.40;;
21418;SDS011;10870;51.384;10.316;2023-02-15T00:20:16;9.65;;;6.28;;
21418;SDS011;10870;51.384;10.316;2023-02-15T00:22:18;6.95;;;5.55;;
21418;SDS011;10870;51.384;10.316;2023-02-15T00:24:20;8.43;;;6.03;;
21418;SDS011;10870;51.384;10.316;2023-02-15T00:26:23;7.57;;;5.45;;
21418;SDS011;10870;51.384;10.316;2023-02-15T00:28:30;9.40;;;6.25;;
21418;SDS011;10870;51.384;10.316;2023-02-15T00:30:34;8.32;;;6.45;;
21418;SDS011;10870;51.384;10.316;2023-02-15T00:32:36;10.38;;;6.72;;
21418;SDS011;10870;51.384;10.316;2023-02-15T00:34:39;13.02;;;8.32;;
21418;SDS011;10870;51.384;10.316;2023-02-15T00:36:44;12.88;;;8.18;;
21418;SDS011;10870;51.384;10.316;2023-02-15T00:38:45;9.77;;;7.28;;
21418;SDS011;10870;51.384;10.316;2023-02-15T00:40:51;13.48;;;8.95;;
21418;SDS011;10870;51.384;10.316;2023-02-15T00:42:54;12.82;;;9.48;;
21418;SDS011;10870;51.384;10.316;2023-02-15T00:44:56;16.25;;;10.50;;
21418;SDS011;10870;51.384;10.316;2023-02-15T00:46:57;22.67;;;13.00;;
21418;SDS011;10870;51.384;10.316;2023-02-15T00:49:02;17.13;;;11.52;;
21418;SDS011;10870;51.384;10.316;2023-02-15T00:51:05;19.42;;;11.63;;
21418;SDS011;10870;51.384;10.316;2023-02-15T00:53:07;20.80;;;11.82;;
21418;SDS011;10870;51.384;10.316;2023-02-15T00:55:08;14.20;;;9.63;;
21418;SDS011;10870;51.384;10.316;2023-02-15T00:57:09;13.20;;;9.57;;
21418;SDS011;10870;51.384;10.316;2023-02-15T00:59:11;15.02;;;9.77;;
21418;SDS011;10870;51.384;10.316;2023-02-15T01:01:15;13.10;;;9.70;;
21418;SDS011;10870;51.384;10.316;2023-02-15T01:03:20;13.88;;;9.40;;
21418;SDS011;10870;51.384;10.316;2023-02-15T01:05:21;11.65;;;7.80;;
21418;SDS011;10870;51.384;10.316;2023-02-15T01:07:25;12.65;;;8.40;;
21418;SDS011;10870;51.384;10.316;2023-02-15T01:09:26;13.90;;;8.43;;
21418;SDS011;10870;51.384;10.316;2023-02-15T01:11:30;11.02;;;7.03;;
21418;SDS011;10870;51.384;10.316;2023-02-15T01:13:32;11.25;;;7.10;;
21418;SDS011;10870;51.384;10.316;2023-02-15T01:15:36;10.75;;;7.38;;
21418;SDS011;10870;51.384;10.316;2023-02-15T01:17:37;12.95;;;7.95;;
21418;SDS011;10870;51.384;10.316;2023-02-15T01:19:39;12.38;;;8.38;;
21418;SDS011;10870;51.384;10.316;2023-02-15T01:21:40;10.90;;;7.82;;
21418;SDS011;10870;51.384;10.316;2023-02-15T01:23:42;11.30;;;7.63;;
21418;SDS011;10870;51.384;10.316;2023-02-15T01:25:43;11.18;;;8.38;;
21418;SDS011;10870;51.384;10.316;2023-02-15T01:27:47;11.93;;;8.35;;
21418;SDS011;10870;51.384;10.316;2023-02-15T01:29:50;12.98;;;8.13;;
21418;SDS011;10870;51.384;10.316;2023-02-15T01:31:52;11.82;;;8.55;;
21418;SDS011;10870;51.384;10.316;2023-02-15T01:33:58;12.77;;;7.55;;
21418;SDS011;10870;51.384;10.316;2023-02-15T01:36:04;10.23;;;6.93;;
21418;SDS011;10870;51.384;10.316;2023-02-15T01:38:10;12.85;;;7.82;;
21418;SDS011;10870;51.384;10.316;2023-02-15T01:40:12;11.48;;;7.32;;
21418;SDS011;10870;51.384;10.316;2023-02-15T01:42:26;9.77;;;6.97;;
21418;SDS011;10870;51.384;10.316;2023-02-15T01:44:46;9.43;;;6.60;;
21418;SDS011;10870;51.384;10.316;2023-02-15T01:46:51;13.00;;;8.18;;
21418;SDS011;10870;51.384;10.316;2023-02-15T01:48:55;9.52;;;7.88;;
21418;SDS011;10870;51.384;10.316;2023-02-15T01:50:58;11.95;;;7.35;;
21418;SDS011;10870;51.384;10.316;2023-02-15T01:55:02;12.70;;;7.88;;
21418;SDS011;10870;51.384;10.316;2023-02-15T01:57:11;11.07;;;7.50;;
21418;SDS011;10870;51.384;10.316;2023-02-15T01:59:14;9.18;;;6.57;;
21418;SDS011;10870;51.384;10.316;2023-02-15T02:01:22;10.73;;;7.03;;
21418;SDS011;10870;51.384;10.316;2023-02-15T02:03:35;11.45;;;7.40;;
21418;SDS011;10870;51.384;10.316;2023-02-15T02:05:37;10.05;;;7.20;;
21418;SDS011;10870;51.384;10.316;2023-02-15T02:07:42;10.43;;;6.88;;
21418;SDS011;10870;51.384;10.316;2023-02-15T02:09:45;9.55;;;6.03;;
21418;SDS011;10870;51.384;10.316;2023-02-15T02:11:46;7.38;;;5.85;;
21418;SDS011;10870;51.384;10.316;2023-02-15T02:13:51;9.73;;;6.28;;
21418;SDS011;10870;51.384;10.316;2023-02-15T02:35:34;8.68;;;6.18;;
21418;SDS011;10870;51.384;10.316;2023-02-15T02:48:08;8.23;;;5.28;;
21418;SDS011;10870;51.384;10.316;2023-02-15T02:50:20;10.20;;;5.95;;
21418;SDS011;10870;51.384;10.316;2023-02-15T02:52:38;9.02;;;6.07;;
21418;SDS011;10870;51.384;10.316;2023-02-15T02:54:40;9.73;;;6.65;;
21418;SDS011;10870;51.384;10.316;2023-02-15T02:56:43;10.00;;;6.72;;
21418;SDS011;10870;51.384;10.316;2023-02-15T02:58:54;8.02;;;6.35;;
21418;SDS011;10870;51.384;10.316;2023-02-15T03:00:57;10.00;;;7.00;;
21418;SDS011;10870;51.384;10.316;2023-02-15T03:03:00;8.82;;;6.88;;
21418;SDS011;10870;51.384;10.316;2023-02-15T03:05:06;11.35;;;7.10;;
21418;SDS011;10870;51.384;10.316;2023-02-15T03:07:12;10.20;;;6.95;;
21418;SDS011;10870;51.384;10.316;2023-02-15T03:09:26;10.63;;;7.68;;
21418;SDS011;10870;51.384;10.316;2023-02-15T03:11:46;11.50;;;7.78;;
21418;SDS011;10870;51.384;10.316;2023-02-15T03:13:49;12.80;;;7.85;;
21418;SDS011;10870;51.384;10.316;2023-02-15T03:15:50;8.95;;;6.60;;
21418;SDS011;10870;51.384;10.316;2023-02-15T03:20:18;9.10;;;6.65;;
21418;SDS011;10870;51.384;10.316;2023-02-15T03:22:26;10.27;;;7.45;;
21418;SDS011;10870;51.384;10.316;2023-02-15T03:26:43;12.48;;;8.32;;
21418;SDS011;10870;51.384;10.316;2023-02-15T03:28:47;11.25;;;7.10;;
21418;SDS011;10870;51.384;10.316;2023-02-15T03:30:53;12.60;;;8.38;;
21418;SDS011;10870;51.384;10.316;2023-02-15T03:32:56;12.07;;;8.50;;
21418;SDS011;10870;51.384;10.316;2023-02-15T03:35:00;12.70;;;8.38;;
21418;SDS011;10870;51.384;10.316;2023-02-15T03:37:05;10.50;;;7.55;;
21418;SDS011;10870;51.384;10.316;2023-02-15T03:41:36;15.20;;;8.88;;
21418;SDS011;10870;51.384;10.316;2023-02-15T03:43:54;13.13;;;8.75;;
21418;SDS011;10870;51.384;10.316;2023-02-15T03:45:58;11.85;;;8.45;;
21418;SDS011;10870;51.384;10.316;2023-02-15T03:48:02;10.40;;;8.63;;
21418;SDS011;10870;51.384;10.316;2023-02-15T03:50:08;12.15;;;8.38;;
21418;SDS011;10870;51.384;10.316;2023-02-15T03:52:32;13.80;;;8.68;;
21418;SDS011;10870;51.384;10.316;2023-02-15T03:54:35;15.07;;;7.60;;
21418;SDS011;10870;51.384;10.316;2023-02-15T03:56:42;12.05;;;8.02;;
21418;SDS011;10870;51.384;10.316;2023-02-15T03:59:04;11.88;;;7.68;;
21418;SDS011;10870;51.384;10.316;2023-02-15T04:01:37;12.67;;;7.73;;
21418;SDS011;10870;51.384;10.316;2023-02-15T04:03:59;13.82;;;9.38;;
21418;SDS011;10870;51.384;10.316;2023-02-15T04:06:04;12.50;;;8.38;;
21418;SDS011;10870;51.384;10.316;2023-02-15T04:08:06;13.32;;;8.93;;
21418;SDS011;10870;51.384;10.316;2023-02-15T04:10:11;12.88;;;8.80;;
21418;SDS011;10870;51.384;10.316;2023-02-15T04:12:31;13.55;;;8.48;;
21418;SDS011;10870;51.384;10.316;2023-02-15T04:14:33;13.02;;;9.00;;
21418;SDS011;10870;51.384;10.316;2023-02-15T04:16:53;8.35;;;6.68;;
21418;SDS011;10870;51.384;10.316;2023-02-15T04:18:54;16.25;;;10.52;;
21418;SDS011;10870;51.384;10.316;2023-02-15T04:21:16;14.73;;;10.50;;
21418;SDS011;10870;51.384;10.316;2023-02-15T04:23:36;15.45;;;10.43;;
21418;SDS011;10870;51.384;10.316;2023-02-15T04:25:57;14.57;;;10.38;;
21418;SDS011;10870;51.384;10.316;2023-02-15T04:27:59;12.13;;;8.60;;
21418;SDS011;10870;51.384;10.316;2023-02-15T04:30:00;16.40;;;10.25;;
21418;SDS011;10870;51.384;10.316;2023-02-15T04:32:01;11.68;;;8.55;;
21418;SDS011;10870;51.384;10.316;2023-02-15T04:34:03;14.57;;;9.18;;
21418;SDS011;10870;51.384;10.316;2023-02-15T04:36:06;10.70;;;8.00;;
21418;SDS011;10870;51.384;10.316;2023-02-15T04:38:13;15.02;;;9.30;;
21418;SDS011;10870;51.384;10.316;2023-02-15T04:40:14;11.43;;;8.38;;
21418;SDS011;10870;51.384;10.316;2023-02-15T04:42:18;11.60;;;8.82;;
21418;SDS011;10870;51.384;10.316;2023-02-15T04:44:22;12.38;;;8.45;;
21418;SDS011;10870;51.384;10.316;2023-02-15T04:46:24;14.90;;;8.85;;
21418;SDS011;10870;51.384;10.316;2023-02-15T04:48:25;13.35;;;8.35;;
21418;SDS011;10870;51.384;10.316;2023-02-15T04:50:28;14.00;;;9.13;;
21418;SDS011;10870;51.384;10.316;2023-02-15T04:52:30;11.68;;;8.80;;
21418;SDS011;10870;51.384;10.316;2023-02-15T04:54:31;12.65;;;8.85;;
21418;SDS011;10870;51.384;10.316;2023-02-15T04:56:34;12.13;;;8.55;;
21418;SDS011;10870;51.384;10.316;2023-02-15T04:58:37;12.65;;;8.80;;
21418;SDS011;10870;51.384;10.316;2023-02-15T05:00:41;18.65;;;11.43;;
21418;SDS011;10870;51.384;10.316;2023-02-15T05:02:42;18.27;;;11.88;;
21418;SDS011;10870;51.384;10.316;2023-02-15T05:04:44;17.80;;;12.25;;
21418;SDS011;10870;51.384;10.316;2023-02-15T05:06:45;21.23;;;13.75;;
21418;SDS011;10870;51.384;10.316;2023-02-15T05:08:48;19.73;;;14.35;;
21418;SDS011;10870;51.384;10.316;2023-02-15T05:10:50;21.17;;;12.35;;
21418;SDS011;10870;51.384;10.316;2023-02-15T05:12:51;24.83;;;16.73;;
21418;SDS011;10870;51.384;10.316;2023-02-15T05:14:53;21.67;;;13.85;;
21418;SDS011;10870;51.384;10.316;2023-02-15T05:16:54;20.13;;;13.77;;
21418;SDS011;10870;51.384;10.316;2023-02-15T05:18:58;20.75;;;13.95;;
21418;SDS011;10870;51.384;10.316;2023-02-15T05:20:59;20.48;;;13.73;;
21418;SDS011;10870;51.384;10.316;2023-02-15T05:23:00;24.55;;;14.55;;
21418;SDS011;10870;51.384;10.316;2023-02-15T05:25:04;17.25;;;12.88;;
21418;SDS011;10870;51.384;10.316;2023-02-15T05:27:24;16.92;;;11.93;;
21418;SDS011;10870;51.384;10.316;2023-02-15T05:29:44;17.02;;;11.73;;
21418;SDS011;10870;51.384;10.316;2023-02-15T05:31:45;16.50;;;11.63;;
21418;SDS011;10870;51.384;10.316;2023-02-15T05:33:49;13.25;;;9.23;;
21418;SDS011;10870;51.384;10.316;2023-02-15T05:35:50;17.80;;;11.27;;
21418;SDS011;10870;51.384;10.316;2023-02-15T05:37:54;21.75;;;11.52;;
21418;SDS011;10870;51.384;10.316;2023-02-15T05:39:56;16.60;;;10.75;;
21418;SDS011;10870;51.384;10.316;2023-02-15T05:42:00;15.75;;;11.32;;
21418;SDS011;10870;51.384;10.316;2023-02-15T05:44:02;14.48;;;9.95;;
21418;SDS011;10870;51.384;10.316;2023-02-15T05:46:11;15.70;;;10.00;;
21418;SDS011;10870;51.384;10.316;2023-02-15T05:48:12;22.27;;;11.90;;
21418;SDS011;10870;51.384;10.316;2023-02-15T05:50:14;19.13;;;11.63;;
21418;SDS011;10870;51.384;10.316;2023-02-15T05:52:20;25.15;;;15.20;;
21418;SDS011;10870;51.384;10.316;2023-02-15T05:54:22;29.98;;;16.90;;
21418;SDS011;10870;51.384;10.316;2023-02-15T05:56:23;26.13;;;15.38;;
21418;SDS011;10870;51.384;10.316;2023-02-15T05:58:25;22.20;;;13.30;;
21418;SDS011;10870;51.384;10.316;2023-02-15T06:00:29;17.58;;;11.60;;
21418;SDS011;10870;51.384;10.316;2023-02-15T06:02:34;18.20;;;11.82;;
21418;SDS011;10870;51.384;10.316;2023-02-15T06:04:38;17.60;;;10.50;;
21418;SDS011;10870;51.384;10.316;2023-02-15T06:06:39;18.70;;;11.98;;
21418;SDS011;10870;51.384;10.316;2023-02-15T06:08:41;22.00;;;12.00;;
21418;SDS011;10870;51.384;10.316;2023-02-15T06:10:42;17.33;;;11.18;;
21418;SDS011;10870;51.384;10.316;2023-02-15T06:12:45;20.40;;;12.40;;
21418;SDS011;10870;51.384;10.316;2023-02-15T06:14:49;16.80;;;11.20;;
21418;SDS011;10870;51.384;10.316;2023-02-15T06:16:50;18.65;;;10.95;;
21418;SDS011;10870;51.384;10.316;2023-02-15T06:18:52;20.55;;;13.50;;
21418;SDS011;10870;51.384;10.316;2023-02-15T06:20:53;24.23;;;13.93;;
21418;SDS011;10870;51.384;10.316;2023-02-15T06:22:54;23.27;;;13.20;;
21418;SDS011;10870;51.384;10.316;2023-02-15T06:24:58;21.25;;;12.20;;
21418;SDS011;10870;51.384;10.316;2023-02-15T06:26:59;17.63;;;11.32;;
21418;SDS011;10870;51.384;10.316;2023-02-15T06:29:03;20.50;;;12.65;;
21418;SDS011;10870;51.384;10.316;2023-02-15T06:31:07;19.25;;;11.65;;
21418;SDS011;10870;51.384;10.316;2023-02-15T06:33:08;17.38;;;11.25;;
21418;SDS011;10870;51.384;10.316;2023-02-15T06:35:10;15.77;;;11.35;;
21418;SDS011;10870;51.384;10.316;2023-02-15T06:37:11;16.38;;;11.25;;
21418;SDS011;10870;51.384;10.316;2023-02-15T06:39:15;16.80;;;10.95;;
21418;SDS011;10870;51.384;10.316;2023-02-15T06:41:16;17.23;;;10.65;;
21418;SDS011;10870;51.384;10.316;2023-02-15T06:43:19;17.60;;;11.85;;
21418;SDS011;10870;51.384;10.316;2023-02-15T06:45:20;19.95;;;12.88;;
21418;SDS011;10870;51.384;10.316;2023-02-15T06:47:25;16.98;;;11.70;;
21418;SDS011;10870;51.384;10.316;2023-02-15T06:49:26;16.30;;;11.93;;
21418;SDS011;10870;51.384;10.316;2023-02-15T06:51:27;17.25;;;11.80;;
21418;SDS011;10870;51.384;10.316;2023-02-15T06:53:29;17.35;;;12.70;;
21418;SDS011;10870;51.384;10.316;2023-02-15T06:55:30;18.88;;;12.73;;
21418;SDS011;10870;51.384;10.316;2023-02-15T06:57:34;20.42;;;12.48;;
21418;SDS011;10870;51.384;10.316;2023-02-15T06:59:35;19.90;;;13.18;;
21418;SDS011;10870;51.384;10.316;2023-02-15T07:01:37;20.42;;;12.27;;
21418;SDS011;10870;51.384;10.316;2023-02-15T07:03:41;21.00;;;12.63;;
21418;SDS011;10870;51.384;10.316;2023-02-15T07:05:43;18.08;;;12.70;;
21418;SDS011;10870;51.384;10.316;2023-02-15T07:07:45;17.02;;;11.85;;
21418;SDS011;10870;51.384;10.316;2023-02-15T07:09:49;18.98;;;13.00;;
21418;SDS011;10870;51.384;10.316;2023-02-15T07:11:51;22.15;;;13.80;;
21418;SDS011;10870;51.384;10.316;2023-02-15T07:14:11;19.80;;;13.38;;
21418;SDS011;10870;51.384;10.316;2023-02-15T07:16:17;20.08;;;12.20;;
21418;SDS011;10870;51.384;10.316;2023-02-15T07:18:18;19.45;;;12.02;;
21418;SDS011;10870;51.384;10.316;2023-02-15T07:20:23;19.15;;;12.05;;
21418;SDS011;10870;51.384;10.316;2023-02-15T07:22:24;18.13;;;11.65;;
21418;SDS011;10870;51.384;10.316;2023-02-15T07:24:26;19.58;;;12.82;;
21418;SDS011;10870;51.384;10.316;2023-02-15T07:26:33;19.45;;;13.23;;
21418;SDS011;10870;51.384;10.316;2023-02-15T07:28:35;22.67;;;14.35;;
21418;SDS011;10870;51.384;10.316;2023-02-15T07:30:36;26.48;;;15.05;;
21418;SDS011;10870;51.384;10.316;2023-02-15T07:32:40;27.13;;;16.85;;
21418;SDS011;10870;51.384;10.316;2023-02-15T07:35:01;23.60;;;14.50;;
21418;SDS011;10870;51.384;10.316;2023-02-15T07:37:02;27.30;;;15.07;;
21418;SDS011;10870;51.384;10.316;2023-02-15T07:39:06;25.05;;;14.40;;
21418;SDS011;10870;51.384;10.316;2023-02-15T07:41:10;19.67;;;13.73;;
21418;SDS011;10870;51.384;10.316;2023-02-15T07:43:15;21.15;;;13.52;;
21418;SDS011;10870;51.384;10.316;2023-02-15T07:45:16;20.65;;;13.93;;
21418;SDS011;10870;51.384;10.316;2023-02-15T07:47:20;20.63;;;13.07;;
21418;SDS011;10870;51.384;10.316;2023-02-15T07:49:24;18.85;;;12.55;;
21418;SDS011;10870;51.384;10.316;2023-02-15T07:51:25;19.55;;;12.25;;
21418;SDS011;10870;51.384;10.316;2023-02-15T07:53:29;17.38;;;12.13;;
21418;SDS011;10870;51.384;10.316;2023-02-15T07:55:31;20.77;;;12.15;;
21418;SDS011;10870;51.384;10.316;2023-02-15T07:57:35;20.85;;;12.80;;
21418;SDS011;10870;51.384;10.316;2023-02-15T07:59:36;16.67;;;12.27;;
21418;SDS011;10870;51.384;10.316;2023-02-15T08:01:40;21.33;;;13.13;;
21418;SDS011;10870;51.384;10.316;2023-02-15T08:03:46;19.67;;;12.05;;
21418;SDS011;10870;51.384;10.316;2023-02-15T08:05:51;21.40;;;13.50;;
21418;SDS011;10870;51.384;10.316;2023-02-15T08:07:54;13.07;;;8.23;;
21418;SDS011;10870;51.384;10.316;2023-02-15T08:10:02;11.10;;;7.82;;
21418;SDS011;10870;51.384;10.316;2023-02-15T08:12:03;10.52;;;7.20;;
21418;SDS011;10870;51.384;10.316;2023-02-15T08:14:12;12.25;;;8.02;;
21418;SDS011;10870;51.384;10.316;2023-02-15T08:16:13;11.43;;;7.85;;
21418;SDS011;10870;51.384;10.316;2023-02-15T08:18:22;12.60;;;7.88;;
21418;SDS011;10870;51.384;10.316;2023-02-15T08:20:26;11.05;;;7.30;;
21418;SDS011;10870;51.384;10.316;2023-02-15T08:22:29;12.80;;;7.38;;
21418;SDS011;10870;51.384;10.316;2023-02-15T08:24:32;11.05;;;7.45;;
21418;SDS011;10870;51.384;10.316;2023-02-15T08:26:34;11.15;;;6.28;;
21418;SDS011;10870;51.384;10.316;2023-02-15T08:28:36;8.25;;;6.90;;
21418;SDS011;10870;51.384;10.316;2023-02-15T08:30:40;8.88;;;6.28;;
21418;SDS011;10870;51.384;10.316;2023-02-15T08:32:43;8.30;;;6.85;;
21418;SDS011;10870;51.384;10.316;2023-02-15T08:34:44;9.75;;;5.97;;
21418;SDS011;10870;51.384;10.316;2023-02-15T08:36:46;9.93;;;6.25;;
21418;SDS011;10870;51.384;10.316;2023-02-15T08:38:47;7.47;;;5.38;;
21418;SDS011;10870;51.384;10.316;2023-02-15T08:40:48;9.98;;;5.85;;
21418;SDS011;10870;51.384;10.316;2023-02-15T08:42:50;9.20;;;6.20;;
21418;SDS011;10870;51.384;10.316;2023-02-15T08:44:51;8.68;;;6.15;;
21418;SDS011;10870;51.384;10.316;2023-02-15T08:46:57;8.05;;;6.03;;
21418;SDS011;10870;51.384;10.316;2023-02-15T08:49:05;8.63;;;6.25;;
21418;SDS011;10870;51.384;10.316;2023-02-15T08:51:13;8.43;;;6.35;;
21418;SDS011;10870;51.384;10.316;2023-02-15T08:53:14;10.20;;;6.88;;
21418;SDS011;10870;51.384;10.316;2023-02-15T08:55:16;10.63;;;6.68;;
21418;SDS011;10870;51.384;10.316;2023-02-15T08:57:17;7.50;;;5.82;;
21418;SDS011;10870;51.384;10.316;2023-02-15T08:59:22;7.97;;;5.72;;
21418;SDS011;10870;51.384;10.316;2023-02-15T09:01:26;6.93;;;5.05;;
21418;SDS011;10870;51.384;10.316;2023-02-15T09:03:30;8.35;;;4.93;;
21418;SDS011;10870;51.384;10.316;2023-02-15T09:05:32;7.60;;;4.97;;
21418;SDS011;10870;51.384;10.316;2023-02-15T09:07:34;8.02;;;5.35;;
21418;SDS011;10870;51.384;10.316;2023-02-15T09:09:37;10.95;;;5.72;;
21418;SDS011;10870;51.384;10.316;2023-02-15T09:11:40;7.13;;;4.90;;
21418;SDS011;10870;51.384;10.316;2023-02-15T09:13:42;7.70;;;4.72;;
21418;SDS011;10870;51.384;10.316;2023-02-15T09:15:46;7.28;;;4.75;;
21418;SDS011;10870;51.384;10.316;2023-02-15T09:17:47;8.07;;;4.82;;
21418;SDS011;10870;51.384;10.316;2023-02-15T09:19:49;7.38;;;4.78;;
21418;SDS011;10870;51.384;10.316;2023-02-15T09:21:50;7.63;;;4.93;;
21418;SDS011;10870;51.384;10.316;2023-02-15T09:24:00;7.30;;;5.10;;
21418;SDS011;10870;51.384;10.316;2023-02-15T09:26:08;5.93;;;4.13;;
21418;SDS011;10870;51.384;10.316;2023-02-15T09:28:12;8.77;;;5.40;;
21418;SDS011;10870;51.384;10.316;2023-02-15T09:30:14;7.53;;;5.32;;
21418;SDS011;10870;51.384;10.316;2023-02-15T09:32:15;6.60;;;4.57;;
21418;SDS011;10870;51.384;10.316;2023-02-15T09:34:22;7.28;;;5.20;;
21418;SDS011;10870;51.384;10.316;2023-02-15T09:36:31;7.05;;;4.28;;
21418;SDS011;10870;51.384;10.316;2023-02-15T09:38:35;5.10;;;3.65;;
21418;SDS011;10870;51.384;10.316;2023-02-15T09:40:39;7.00;;;4.93;;
21418;SDS011;10870;51.384;10.316;2023-02-15T09:42:54;7.13;;;5.10;;
21418;SDS011;10870;51.384;10.316;2023-02-15T09:49:43;8.93;;;6.45;;
21418;SDS011;10870;51.384;10.316;2023-02-15T09:52:02;8.95;;;5.78;;
21418;SDS011;10870;51.384;10.316;2023-02-15T09:54:24;9.65;;;5.97;;
21418;SDS011;10870;51.384;10.316;2023-02-15T09:58:35;9.45;;;7.10;;
21418;SDS011;10870;51.384;10.316;2023-02-15T10:04:59;11.50;;;6.78;;
21418;SDS011;10870;51.384;10.316;2023-02-15T10:07:17;11.85;;;8.02;;
21418;SDS011;10870;51.384;10.316;2023-02-15T10:09:36;12.40;;;7.60;;
21418;SDS011;10870;51.384;10.316;2023-02-15T10:13:45;12.10;;;7.05;;
21418;SDS011;10870;51.384;10.316;2023-02-15T10:20:20;11.45;;;7.85;;
21418;SDS011;10870;51.384;10.316;2023-02-15T10:26:37;10.98;;;8.18;;
21418;SDS011;10870;51.384;10.316;2023-02-15T10:30:51;10.65;;;8.55;;
21418;SDS011;10870;51.384;10.316;2023-02-15T10:33:03;9.60;;;7.40;;
21418;SDS011;10870;51.384;10.316;2023-02-15T10:35:27;13.20;;;8.40;;
21418;SDS011;10870;51.384;10.316;2023-02-15T10:37:44;12.40;;;8.40;;
21418;SDS011;10870;51.384;10.316;2023-02-15T10:41:54;13.20;;;8.82;;
21418;SDS011;10870;51.384;10.316;2023-02-15T10:54:38;15.20;;;9.55;;
21418;SDS011;10870;51.384;10.316;2023-02-15T11:07:43;10.55;;;7.22;;
21418;SDS011;10870;51.384;10.316;2023-02-15T11:09:49;9.97;;;7.30;;
21418;SDS011;10870;51.384;10.316;2023-02-15T11:11:53;10.15;;;8.23;;
21418;SDS011;10870;51.384;10.316;2023-02-15T11:14:05;11.10;;;7.30;;
21418;SDS011;10870;51.384;10.316;2023-02-15T11:16:28;10.23;;;7.38;;
21418;SDS011;10870;51.384;10.316;2023-02-15T11:20:35;8.85;;;6.97;;
21418;SDS011;10870;51.384;10.316;2023-02-15T11:22:38;10.35;;;7.43;;
21418;SDS011;10870;51.384;10.316;2023-02-15T11:24:44;8.07;;;6.18;;
21418;SDS011;10870;51.384;10.316;2023-02-15T11:29:10;8.23;;;6.22;;
21418;SDS011;10870;51.384;10.316;2023-02-15T11:31:17;10.30;;;6.72;;
21418;SDS011;10870;51.384;10.316;2023-02-15T11:33:25;7.72;;;6.55;;
21418;SDS011;10870;51.384;10.316;2023-02-15T11:35:32;9.82;;;6.72;;
21418;SDS011;10870;51.384;10.316;2023-02-15T11:37:39;10.23;;;7.65;;
21418;SDS011;10870;51.384;10.316;2023-02-15T11:39:41;10.73;;;7.93;;
21418;SDS011;10870;51.384;10.316;2023-02-15T11:41:55;9.93;;;7.13;;
21418;SDS011;10870;51.384;10.316;2023-02-15T11:43:59;9.65;;;7.18;;
21418;SDS011;10870;51.384;10.316;2023-02-15T11:46:04;10.30;;;7.50;;
21418;SDS011;10870;51.384;10.316;2023-02-15T11:48:09;12.93;;;8.60;;
21418;SDS011;10870;51.384;10.316;2023-02-15T11:50:14;11.80;;;9.07;;
21418;SDS011;10870;51.384;10.316;2023-02-15T11:52:16;14.15;;;8.70;;
21418;SDS011;10870;51.384;10.316;2023-02-15T11:54:19;15.85;;;9.18;;
21418;SDS011;10870;51.384;10.316;2023-02-15T11:56:23;13.90;;;9.60;;
21418;SDS011;10870;51.384;10.316;2023-02-15T12:00:35;12.25;;;8.82;;
21418;SDS011;10870;51.384;10.316;2023-02-15T12:02:42;12.05;;;9.18;;
21418;SDS011;10870;51.384;10.316;2023-02-15T12:04:49;14.43;;;10.23;;
21418;SDS011;10870;51.384;10.316;2023-02-15T12:07:41;9.43;;;7.03;;
21418;SDS011;10870;51.384;10.316;2023-02-15T12:11:35;13.57;;;9.68;;
21418;SDS011;10870;51.384;10.316;2023-02-15T12:15:56;13.90;;;10.13;;
21418;SDS011;10870;51.384;10.316;2023-02-15T12:18:00;14.98;;;10.60;;
21418;SDS011;10870;51.384;10.316;2023-02-15T12:20:34;13.48;;;9.38;;
21418;SDS011;10870;51.384;10.316;2023-02-15T12:22:32;14.10;;;10.07;;
21418;SDS011;10870;51.384;10.316;2023-02-15T12:24:36;15.07;;;10.48;;
21418;SDS011;10870;51.384;10.316;2023-02-15T12:26:42;14.40;;;10.70;;
21418;SDS011;10870;51.384;10.316;2023-02-15T12:28:44;13.82;;;10.32;;
21418;SDS011;10870;51.384;10.316;2023-02-15T12:30:49;15.98;;;12.23;;
21418;SDS011;10870;51.384;10.316;2023-02-15T12:32:52;14.63;;;10.57;;
21418;SDS011;10870;51.384;10.316;2023-02-15T12:35:01;13.52;;;10.65;;
21418;SDS011;10870;51.384;10.316;2023-02-15T12:37:19;16.02;;;11.52;;
21418;SDS011;10870;51.384;10.316;2023-02-15T12:39:22;13.18;;;10.90;;
21418;SDS011;10870;51.384;10.316;2023-02-15T12:41:25;14.30;;;10.20;;
21418;SDS011;10870;51.384;10.316;2023-02-15T12:43:38;12.77;;;10.20;;
21418;SDS011;10870;51.384;10.316;2023-02-15T12:45:44;15.40;;;10.45;;
21418;SDS011;10870;51.384;10.316;2023-02-15T12:47:45;15.63;;;11.48;;
21418;SDS011;10870;51.384;10.316;2023-02-15T12:54:33;15.25;;;10.32;;
21418;SDS011;10870;51.384;10.316;2023-02-15T12:56:38;16.70;;;10.82;;
21418;SDS011;10870;51.384;10.316;2023-02-15T12:58:40;15.13;;;11.60;;
21418;SDS011;10870;51.384;10.316;2023-02-15T13:00:48;14.02;;;11.18;;
21418;SDS011;10870;51.384;10.316;2023-02-15T13:03:02;18.42;;;11.55;;
21418;SDS011;10870;51.384;10.316;2023-02-15T13:07:29;15.18;;;11.75;;
21418;SDS011;10870;51.384;10.316;2023-02-15T13:11:35;14.07;;;10.55;;
21418;SDS011;10870;51.384;10.316;2023-02-15T13:16:02;13.20;;;10.85;;
21418;SDS011;10870;51.384;10.316;2023-02-15T13:18:10;14.88;;;11.70;;
21418;SDS011;10870;51.384;10.316;2023-02-15T13:20:19;16.98;;;11.77;;
21418;SDS011;10870;51.384;10.316;2023-02-15T13:24:46;14.57;;;11.13;;
21418;SDS011;10870;51.384;10.316;2023-02-15T13:26:48;15.18;;;11.07;;
21418;SDS011;10870;51.384;10.316;2023-02-15T13:28:53;16.02;;;11.15;;
21418;SDS011;10870;51.384;10.316;2023-02-15T13:30:55;17.55;;;11.07;;
21418;SDS011;10870;51.384;10.316;2023-02-15T13:33:00;15.55;;;11.63;;
21418;SDS011;10870;51.384;10.316;2023-02-15T13:35:15;18.90;;;12.82;;
21418;SDS011;10870;51.384;10.316;2023-02-15T13:37:20;16.42;;;11.70;;
21418;SDS011;10870;51.384;10.316;2023-02-15T13:39:25;16.50;;;11.85;;
21418;SDS011;10870;51.384;10.316;2023-02-15T13:44:12;15.82;;;11.55;;
21418;SDS011;10870;51.384;10.316;2023-02-15T13:46:00;14.88;;;10.73;;
21418;SDS011;10870;51.384;10.316;2023-02-15T13:48:20;15.60;;;11.55;;
21418;SDS011;10870;51.384;10.316;2023-02-15T13:52:29;19.40;;;12.63;;
21418;SDS011;10870;51.384;10.316;2023-02-15T14:08:04;16.48;;;11.48;;
21418;SDS011;10870;51.384;10.316;2023-02-15T14:18:53;17.30;;;11.95;;
21418;SDS011;10870;51.384;10.316;2023-02-15T14:31:48;14.70;;;12.03;;
21418;SDS011;10870;51.384;10.316;2023-02-15T14:33:53;14.85;;;11.25;;
21418;SDS011;10870;51.384;10.316;2023-02-15T14:35:55;15.13;;;12.15;;
21418;SDS011;10870;51.384;10.316;2023-02-15T14:43:09;16.83;;;12.73;;
21418;SDS011;10870;51.384;10.316;2023-02-15T14:45:21;15.27;;;11.45;;